createdAt,value
2023-03-03T00:00:04.824Z,91.9
2023-03-03T00:03:03.437Z,92
2023-03-03T00:06:03.272Z,92
2023-03-03T00:09:03.407Z,92
2023-03-03T00:12:03.341Z,92
2023-03-03T00:15:03.397Z,92
2023-03-03T00:18:03.329Z,92
2023-03-03T00:21:03.472Z,92
2023-03-03T00:24:03.308Z,92
2023-03-03T00:27:03.343Z,92
2023-03-03T00:30:03.407Z,92
2023-03-03T00:33:03.340Z,92
2023-03-03T00:36:03.407Z,92
2023-03-03T00:39:03.347Z,92
2023-03-03T00:42:03.350Z,92
2023-03-03T00:45:03.370Z,92
2023-03-03T00:48:03.396Z,92
2023-03-03T00:51:03.317Z,92
2023-03-03T00:54:03.432Z,92
2023-03-03T00:57:03.280Z,91.4
2023-03-03T01:00:03.356Z,91.4
2023-03-03T01:03:03.484Z,91.4
2023-03-03T01:06:03.386Z,91.4
2023-03-03T01:09:03.309Z,91.4
2023-03-03T01:12:03.329Z,91.4
2023-03-03T01:15:03.388Z,91.4
2023-03-03T01:18:03.380Z,91.4
2023-03-03T01:21:03.350Z,91.4
2023-03-03T01:24:03.364Z,91.4
2023-03-03T01:27:03.310Z,91.4
2023-03-03T01:30:03.344Z,91.4
2023-03-03T01:33:03.354Z,91.4
2023-03-03T01:36:03.489Z,91.8
2023-03-03T01:39:03.324Z,91.8
2023-03-03T01:42:03.320Z,91.8
2023-03-03T01:45:03.311Z,91.8
2023-03-03T01:48:03.362Z,91.8
2023-03-03T01:51:03.321Z,91.8
2023-03-03T01:54:03.399Z,91.8
2023-03-03T01:57:03.317Z,91.8
2023-03-03T02:00:03.351Z,91.8
2023-03-03T02:03:03.491Z,91.8
2023-03-03T02:06:03.289Z,91.8
2023-03-03T02:09:03.343Z,91.8
2023-03-03T02:12:03.427Z,91.8
2023-03-03T02:15:03.299Z,91.8
2023-03-03T02:18:03.381Z,91.8
2023-03-03T02:21:03.353Z,91.8
2023-03-03T02:24:03.340Z,91.8
2023-03-03T02:27:03.338Z,91.8
2023-03-03T02:30:03.347Z,91.8
2023-03-03T02:33:03.298Z,91.8
2023-03-03T02:36:03.428Z,91.8
2023-03-03T02:39:03.379Z,91.8
2023-03-03T02:42:03.314Z,91.8
2023-03-03T02:45:03.433Z,91.8
2023-03-03T02:48:03.334Z,91.8
2023-03-03T02:51:03.394Z,91.8
2023-03-03T02:54:03.370Z,91.8
2023-03-03T02:57:03.336Z,91.8
2023-03-03T03:00:03.361Z,91.8
2023-03-03T03:03:03.369Z,91.8
2023-03-03T03:06:03.365Z,91.8
2023-03-03T03:09:03.317Z,91.8
2023-03-03T03:12:03.352Z,91.8
2023-03-03T03:15:03.361Z,92.5
2023-03-03T03:18:03.517Z,92.5
2023-03-03T03:21:03.358Z,92.5
2023-03-03T03:24:03.362Z,92.5
2023-03-03T03:27:03.354Z,92.5
2023-03-03T03:30:03.318Z,92.5
2023-03-03T03:33:03.342Z,92.5
2023-03-03T03:36:03.350Z,92.5
2023-03-03T03:39:03.307Z,92.5
2023-03-03T03:42:03.348Z,92.5
2023-03-03T03:45:03.310Z,92.5
2023-03-03T03:48:03.314Z,92.5
2023-03-03T03:51:03.355Z,92.5
2023-03-03T03:54:03.276Z,92.5
2023-03-03T03:57:03.345Z,92.5
2023-03-03T04:00:03.893Z,92.5
2023-03-03T04:03:03.750Z,92.5
2023-03-03T04:06:03.346Z,92.5
2023-03-03T04:09:03.336Z,92.5
2023-03-03T04:12:03.314Z,92.2
2023-03-03T04:15:03.340Z,92.2
2023-03-03T04:18:03.360Z,92.2
2023-03-03T04:21:03.316Z,92.2
2023-03-03T04:24:03.308Z,92.2
2023-03-03T04:27:03.290Z,92.2
2023-03-03T04:30:03.358Z,92.2
2023-03-03T04:33:03.418Z,92.2
2023-03-03T04:36:03.335Z,92.2
2023-03-03T04:39:03.304Z,92.2
2023-03-03T04:42:03.310Z,92.2
2023-03-03T04:45:03.391Z,92.2
2023-03-03T04:48:03.336Z,92.2
2023-03-03T04:51:03.308Z,92.2
2023-03-03T04:54:03.334Z,92.2
2023-03-03T04:57:03.410Z,92.2
2023-03-03T05:00:03.410Z,92.2
2023-03-03T05:03:03.366Z,92.2
2023-03-03T05:06:03.319Z,92.2
2023-03-03T05:09:03.291Z,92.2
2023-03-03T05:12:03.344Z,92.2
2023-03-03T05:15:03.315Z,92.2
2023-03-03T05:18:03.290Z,92.2
2023-03-03T05:21:03.280Z,92.2
2023-03-03T05:24:03.353Z,92.2
2023-03-03T05:27:03.323Z,92.2
2023-03-03T05:30:03.362Z,92.2
2023-03-03T05:33:03.381Z,92.2
2023-03-03T05:36:03.307Z,92.2
2023-03-03T05:39:03.395Z,92.2
2023-03-03T05:42:03.288Z,92.4
2023-03-03T05:45:03.369Z,92.4
2023-03-03T05:48:03.320Z,92.4
2023-03-03T05:51:03.319Z,92.4
2023-03-03T05:54:03.313Z,92.4
2023-03-03T05:57:03.430Z,92.4
2023-03-03T06:00:03.321Z,92.4
2023-03-03T06:03:03.452Z,92.4
2023-03-03T06:06:03.454Z,92.4
2023-03-03T06:09:03.418Z,92.4
2023-03-03T06:12:03.368Z,92.4
2023-03-03T06:15:03.502Z,92.4
2023-03-03T06:18:03.367Z,92.4
2023-03-03T06:21:03.396Z,92.1
2023-03-03T06:24:03.458Z,92.1
2023-03-03T06:27:03.416Z,92.1
2023-03-03T06:30:03.670Z,92.1
2023-03-03T06:33:03.417Z,92.1
2023-03-03T06:36:05.707Z,92.1
2023-03-03T06:39:03.335Z,92.1
2023-03-03T06:42:03.379Z,92.1
2023-03-03T06:45:03.368Z,92.1
2023-03-03T06:48:03.419Z,92.1
2023-03-03T06:51:03.340Z,92.1
2023-03-03T06:54:03.379Z,92.1
2023-03-03T06:57:03.380Z,92.1
2023-03-03T07:00:03.623Z,92.1
2023-03-03T07:03:03.412Z,92.1
2023-03-03T07:06:06.088Z,92.1
2023-03-03T07:09:03.358Z,92.1
2023-03-03T07:12:03.691Z,92.1
2023-03-03T07:15:03.425Z,91.6
2023-03-03T07:18:03.387Z,91.6
2023-03-03T07:21:03.362Z,91.6
2023-03-03T07:24:03.399Z,91.6
2023-03-03T07:27:03.356Z,91.6
2023-03-03T07:30:03.513Z,91.6
2023-03-03T07:33:03.355Z,91.6
2023-03-03T07:36:03.410Z,91.6
2023-03-03T07:39:03.436Z,91.6
2023-03-03T07:42:03.473Z,91.6
2023-03-03T07:45:03.386Z,91.6
2023-03-03T07:48:03.358Z,91.6
2023-03-03T07:51:03.417Z,90.8
2023-03-03T07:54:03.545Z,90.8
2023-03-03T07:57:03.327Z,90.8
2023-03-03T08:00:04.167Z,90.8
2023-03-03T08:03:03.420Z,90.8
2023-03-03T08:06:03.433Z,90.8
2023-03-03T08:09:03.381Z,90.8
2023-03-03T08:12:03.588Z,90.8
2023-03-03T08:15:03.345Z,90.8
2023-03-03T08:18:03.428Z,90.8
2023-03-03T08:21:03.399Z,90.8
2023-03-03T08:24:03.429Z,90.8
2023-03-03T08:27:03.372Z,90.8
2023-03-03T08:30:03.512Z,90.8
2023-03-03T08:33:03.485Z,90.8
2023-03-03T08:36:04.008Z,90.8
2023-03-03T08:39:03.397Z,90.8
2023-03-03T08:42:03.446Z,90.8
2023-03-03T08:45:03.531Z,90.8
2023-03-03T08:48:05.907Z,90.8
2023-03-03T08:51:03.401Z,90.4
2023-03-03T08:54:03.403Z,90.4
2023-03-03T08:57:03.475Z,90.4
2023-03-03T09:00:03.396Z,90.4
2023-03-03T09:03:03.381Z,90.4
2023-03-03T09:06:03.463Z,90.4
2023-03-03T09:09:03.411Z,90.4
2023-03-03T09:12:03.378Z,90.4
2023-03-03T09:15:03.381Z,90.4
2023-03-03T09:18:03.462Z,90.4
2023-03-03T09:21:03.518Z,90.4
2023-03-03T09:24:03.404Z,90.4
2023-03-03T09:27:03.397Z,90.4
2023-03-03T09:30:03.554Z,90.4
2023-03-03T09:33:03.403Z,90.4
2023-03-03T09:36:03.448Z,90.4
2023-03-03T09:39:03.500Z,90.4
2023-03-03T09:42:03.436Z,90
2023-03-03T09:45:03.438Z,90
2023-03-03T09:48:03.405Z,90
2023-03-03T09:51:03.331Z,90
2023-03-03T09:54:03.410Z,90
2023-03-03T09:57:03.359Z,90
2023-03-03T10:00:03.390Z,90
2023-03-03T10:03:03.539Z,90
2023-03-03T10:06:03.360Z,90
2023-03-03T10:09:03.572Z,90
2023-03-03T10:12:03.432Z,90
2023-03-03T10:15:03.435Z,90
2023-03-03T10:18:03.530Z,90
2023-03-03T10:21:03.448Z,90
2023-03-03T10:24:03.463Z,90
2023-03-03T10:27:16.561Z,90
2023-03-03T10:30:03.456Z,89.6
2023-03-03T10:33:04.072Z,89.6
2023-03-03T10:36:10.352Z,89.6
2023-03-03T10:39:03.518Z,89.6
2023-03-03T10:42:03.383Z,89.6
2023-03-03T10:45:03.457Z,89.6
2023-03-03T10:48:03.576Z,89.6
2023-03-03T10:51:04.535Z,89.6
2023-03-03T10:54:03.452Z,89.6
2023-03-03T10:57:03.401Z,89.6
2023-03-03T11:00:03.435Z,89.6
2023-03-03T11:03:03.981Z,89.6
2023-03-03T11:06:03.655Z,89.6
2023-03-03T11:09:03.473Z,89.6
2023-03-03T11:12:03.367Z,89.6
2023-03-03T11:15:03.399Z,89.6
2023-03-03T11:18:03.635Z,88.2
2023-03-03T11:21:03.610Z,88.2
2023-03-03T11:24:03.384Z,88.2
2023-03-03T11:27:03.586Z,88.2
2023-03-03T11:30:03.435Z,88.2
2023-03-03T11:33:03.396Z,88.2
2023-03-03T11:36:03.560Z,88.2
2023-03-03T11:39:03.468Z,88.2
2023-03-03T11:42:03.436Z,88.2
2023-03-03T11:45:03.472Z,88.2
2023-03-03T11:48:03.429Z,88.2
2023-03-03T11:51:03.416Z,88.2
2023-03-03T11:54:03.823Z,88.2
2023-03-03T11:57:03.362Z,88.2
2023-03-03T12:00:03.445Z,87.1
2023-03-03T12:03:03.372Z,87.1
2023-03-03T12:06:03.849Z,87.1
2023-03-03T12:09:03.431Z,87.1
2023-03-03T12:12:03.416Z,87.1
2023-03-03T12:15:03.326Z,87.1
2023-03-03T12:18:03.393Z,86.1
2023-03-03T12:21:03.365Z,86.1
2023-03-03T12:24:06.709Z,86.1
2023-03-03T12:27:03.460Z,86.1
2023-03-03T12:30:07.261Z,86.1
2023-03-03T12:33:03.493Z,86.1
2023-03-03T12:36:03.488Z,86.1
2023-03-03T12:39:03.441Z,86.1
2023-03-03T12:42:05.330Z,86.1
2023-03-03T12:45:03.405Z,86.1
2023-03-03T12:48:03.468Z,86.1
2023-03-03T12:51:03.465Z,86.1
2023-03-03T12:54:03.415Z,86.1
2023-03-03T12:57:03.422Z,86.1
2023-03-03T13:00:03.460Z,86.1
2023-03-03T13:03:03.424Z,85.5
2023-03-03T13:06:03.409Z,85.5
2023-03-03T13:09:03.403Z,85.5
2023-03-03T13:12:03.404Z,85.5
2023-03-03T13:15:03.397Z,85.5
2023-03-03T13:18:03.393Z,85.5
2023-03-03T13:21:03.419Z,85.5
2023-03-03T13:24:03.431Z,85.5
2023-03-03T13:27:03.428Z,85.5
2023-03-03T13:30:03.531Z,85.5
2023-03-03T13:33:03.462Z,84.8
2023-03-03T13:36:03.614Z,84.8
2023-03-03T13:39:03.474Z,84.8
2023-03-03T13:42:03.420Z,84.8
2023-03-03T13:45:03.468Z,84.8
2023-03-03T13:48:03.535Z,84.8
2023-03-03T13:51:03.421Z,84.8
2023-03-03T13:54:03.411Z,84.8
2023-03-03T13:57:03.371Z,83.5
2023-03-03T14:00:03.444Z,83.5
2023-03-03T14:03:03.330Z,83.5
2023-03-03T14:06:03.344Z,83.5
2023-03-03T14:09:03.457Z,83.5
2023-03-03T14:12:03.425Z,83.5
2023-03-03T14:15:03.372Z,83.5
2023-03-03T14:18:03.364Z,82.9
2023-03-03T14:21:03.408Z,82.9
2023-03-03T14:24:03.382Z,82.9
2023-03-03T14:27:03.394Z,82.9
2023-03-03T14:30:03.441Z,82.9
2023-03-03T14:33:03.478Z,82.9
2023-03-03T14:36:03.759Z,82.9
2023-03-03T14:39:03.408Z,82.9
2023-03-03T14:42:03.433Z,82.9
2023-03-03T14:45:03.505Z,82.9
2023-03-03T14:48:03.430Z,82.9
2023-03-03T14:51:03.739Z,82.9
2023-03-03T14:54:03.406Z,82.9
2023-03-03T14:57:03.397Z,82.9
2023-03-03T15:00:03.462Z,82.9
2023-03-03T15:03:03.348Z,82.6
2023-03-03T15:06:03.409Z,82.6
2023-03-03T15:09:03.328Z,82.6
2023-03-03T15:12:03.374Z,82.6
2023-03-03T15:15:03.341Z,82.6
2023-03-03T15:18:03.506Z,82.6
2023-03-03T15:21:03.406Z,82.6
2023-03-03T15:24:03.447Z,82.6
2023-03-03T15:27:03.351Z,82.6
2023-03-03T15:30:03.555Z,82.6
2023-03-03T15:33:03.455Z,82.6
2023-03-03T15:36:03.484Z,82.6
2023-03-03T15:39:03.375Z,82.6
2023-03-03T15:42:03.371Z,82.4
2023-03-03T15:45:03.419Z,82.4
2023-03-03T15:48:03.395Z,82.4
2023-03-03T15:51:03.358Z,82.4
2023-03-03T15:54:03.353Z,82.4
2023-03-03T15:57:03.390Z,82.4
2023-03-03T16:00:03.429Z,82.4
2023-03-03T16:03:03.653Z,82.4
2023-03-03T16:06:03.512Z,82.4
2023-03-03T16:09:03.348Z,82.4
2023-03-03T16:12:03.357Z,82.4
2023-03-03T16:15:03.416Z,82.4
2023-03-03T16:18:03.420Z,82.4
2023-03-03T16:21:03.446Z,82.4
2023-03-03T16:24:03.380Z,82.4
2023-03-03T16:27:03.339Z,82.4
2023-03-03T16:30:03.429Z,82.4
2023-03-03T16:33:03.426Z,82.8
2023-03-03T16:36:03.526Z,82.8
2023-03-03T16:39:03.396Z,82.8
2023-03-03T16:42:03.374Z,82.8
2023-03-03T16:45:03.408Z,82.8
2023-03-03T16:48:03.400Z,83.2
2023-03-03T16:51:03.417Z,83.2
2023-03-03T16:54:03.375Z,83.2
2023-03-03T16:57:03.434Z,83.2
2023-03-03T17:00:03.514Z,83.2
2023-03-03T17:03:03.362Z,83.2
2023-03-03T17:06:03.289Z,83.2
2023-03-03T17:09:03.341Z,83.2
2023-03-03T17:12:03.344Z,83.2
2023-03-03T17:15:03.345Z,83.2
2023-03-03T17:18:03.277Z,83.2
2023-03-03T17:21:03.363Z,83.2
2023-03-03T17:24:03.323Z,83.2
2023-03-03T17:27:03.380Z,83.2
2023-03-03T17:30:03.452Z,83.2
2023-03-03T17:33:03.275Z,83.2
2023-03-03T17:36:03.366Z,83.2
2023-03-03T17:39:03.306Z,83.2
2023-03-03T17:42:03.336Z,83.5
2023-03-03T17:45:03.331Z,83.5
2023-03-03T17:48:03.375Z,83.5
2023-03-03T17:51:03.333Z,83.5
2023-03-03T17:54:03.355Z,83.5
2023-03-03T17:57:03.334Z,83.5
2023-03-03T18:00:03.466Z,83.5
2023-03-03T18:03:03.395Z,83.5
2023-03-03T18:06:03.339Z,83.5
2023-03-03T18:09:17.165Z,83.5
2023-03-03T18:12:03.287Z,83.5
2023-03-03T18:15:03.414Z,83.5
2023-03-03T18:18:03.356Z,83.5
2023-03-03T18:21:03.335Z,83.5
2023-03-03T18:24:03.277Z,83.5
2023-03-03T18:27:03.270Z,83.5
2023-03-03T18:30:03.351Z,83.5
2023-03-03T18:33:03.401Z,82.9
2023-03-03T18:36:03.461Z,82.9
2023-03-03T18:39:03.341Z,82.9
2023-03-03T18:42:03.331Z,82.9
2023-03-03T18:45:03.355Z,82.9
2023-03-03T18:48:03.427Z,82.9
2023-03-03T18:51:03.313Z,82.9
2023-03-03T18:54:03.355Z,82.9
2023-03-03T18:57:03.275Z,82.9
2023-03-03T19:00:03.439Z,82.9
2023-03-03T19:03:03.338Z,82.9
2023-03-03T19:06:03.379Z,82.9
2023-03-03T19:09:03.401Z,82.9
2023-03-03T19:12:03.319Z,82.9
2023-03-03T19:15:03.352Z,82.9
2023-03-03T19:18:03.347Z,82.9
2023-03-03T19:21:03.319Z,82.9
2023-03-03T19:24:03.403Z,82.9
2023-03-03T19:27:03.357Z,82.9
2023-03-03T19:30:03.364Z,82.9
2023-03-03T19:33:03.317Z,82.9
2023-03-03T19:36:03.352Z,82.9
2023-03-03T19:39:03.277Z,82.9
2023-03-03T19:42:03.348Z,82.9
2023-03-03T19:45:03.315Z,82.9
2023-03-03T19:48:03.344Z,82.9
2023-03-03T19:51:03.326Z,82.9
2023-03-03T19:54:03.368Z,82.9
2023-03-03T19:57:03.432Z,82.9
2023-03-03T20:00:03.322Z,82.9
2023-03-03T20:03:03.639Z,82.9
2023-03-03T20:06:03.381Z,82.9
2023-03-03T20:09:03.334Z,82.9
2023-03-03T20:12:03.291Z,82.9
2023-03-03T20:15:03.418Z,82.9
2023-03-03T20:18:03.318Z,82.9
2023-03-03T20:21:03.336Z,82.9
2023-03-03T20:24:03.306Z,82.9
2023-03-03T20:27:03.370Z,82.9
2023-03-03T20:30:03.363Z,82.9
2023-03-03T20:33:03.362Z,86
2023-03-03T20:36:03.362Z,86
2023-03-03T20:39:03.338Z,86
2023-03-03T20:42:03.300Z,86
2023-03-03T20:45:03.327Z,86
2023-03-03T20:48:03.306Z,86
2023-03-03T20:51:03.381Z,86
2023-03-03T20:54:03.376Z,86
2023-03-03T20:57:03.369Z,86
2023-03-03T21:00:03.290Z,86
2023-03-03T21:03:03.297Z,86
2023-03-03T21:06:03.320Z,86
2023-03-03T21:09:03.343Z,86
2023-03-03T21:12:03.376Z,86
2023-03-03T21:15:03.343Z,86
2023-03-03T21:18:03.337Z,86
2023-03-03T21:21:03.412Z,86
2023-03-03T21:24:03.317Z,86
2023-03-03T21:27:03.336Z,86
2023-03-03T21:30:03.317Z,86
2023-03-03T21:33:03.287Z,86
2023-03-03T21:36:03.348Z,85.5
2023-03-03T21:39:03.279Z,85.5
2023-03-03T21:42:03.365Z,85.5
2023-03-03T21:45:03.957Z,85.5
2023-03-03T21:48:05.068Z,85.5
2023-03-03T21:51:03.302Z,85.5
2023-03-03T21:54:03.380Z,85.5
2023-03-03T21:57:03.307Z,85.5
2023-03-03T22:00:03.379Z,85.5
2023-03-03T22:03:03.319Z,85.5
2023-03-03T22:06:03.349Z,85
2023-03-03T22:09:03.327Z,85
2023-03-03T22:12:03.345Z,85
2023-03-03T22:15:03.313Z,85
2023-03-03T22:18:03.356Z,85
2023-03-03T22:21:03.317Z,85
2023-03-03T22:24:03.338Z,85
2023-03-03T22:27:03.383Z,85
2023-03-03T22:30:03.303Z,85
2023-03-03T22:33:03.361Z,85
2023-03-03T22:36:03.341Z,85
2023-03-03T22:39:03.381Z,85.2
2023-03-03T22:42:03.365Z,85.2
2023-03-03T22:45:03.345Z,85.2
2023-03-03T22:48:03.282Z,85.2
2023-03-03T22:51:03.304Z,85.2
2023-03-03T22:54:03.347Z,85.2
2023-03-03T22:57:03.401Z,85.3
2023-03-03T23:00:04.035Z,85.3
2023-03-03T23:03:03.405Z,85.3
2023-03-03T23:06:03.566Z,85.3
2023-03-03T23:09:03.300Z,85.3
2023-03-03T23:12:03.343Z,85.3
2023-03-03T23:15:03.313Z,85.3
2023-03-03T23:18:03.350Z,85.3
2023-03-03T23:21:03.522Z,85.3
2023-03-03T23:24:03.355Z,85.3
2023-03-03T23:27:03.341Z,85.3
2023-03-03T23:30:03.382Z,85.3
2023-03-03T23:33:03.351Z,85.3
2023-03-03T23:36:03.530Z,85.3
2023-03-03T23:39:03.367Z,85.3
2023-03-03T23:42:03.381Z,85.3
2023-03-03T23:45:03.410Z,85.3
2023-03-03T23:48:03.355Z,85.3
2023-03-03T23:51:03.335Z,85.3
2023-03-03T23:54:03.309Z,84.4
2023-03-03T23:57:03.444Z,84.4
